createdAt,value
2022-12-09T00:00:22.622Z,16.06
2022-12-09T00:02:23.495Z,16.07
2022-12-09T00:04:24.384Z,16.06
2022-12-09T00:06:24.869Z,16.04
2022-12-09T00:08:26.003Z,16.06
2022-12-09T00:10:26.790Z,16.04
2022-12-09T00:12:27.516Z,16.01
2022-12-09T00:14:28.236Z,16.00
2022-12-09T00:16:29.055Z,16.03
2022-12-09T00:18:29.841Z,16.00
2022-12-09T00:20:30.641Z,16.00
2022-12-09T00:22:31.442Z,15.99
2022-12-09T00:24:32.394Z,15.97
2022-12-09T00:26:33.144Z,15.94
2022-12-09T00:28:33.937Z,15.94
2022-12-09T00:30:34.661Z,15.94
2022-12-09T00:32:35.688Z,15.93
2022-12-09T00:34:36.014Z,15.92
2022-12-09T00:36:36.447Z,15.89
2022-12-09T00:38:37.272Z,15.88
2022-12-09T00:40:38.041Z,15.88
2022-12-09T00:42:38.756Z,15.89
2022-12-09T00:44:39.472Z,15.88
2022-12-09T00:46:40.588Z,15.89
2022-12-09T00:48:40.845Z,15.89
2022-12-09T00:50:41.820Z,15.86
2022-12-09T00:52:42.548Z,15.84
2022-12-09T00:54:43.565Z,15.85
2022-12-09T00:56:44.044Z,15.84
2022-12-09T00:58:44.738Z,15.84
2022-12-09T01:00:45.627Z,15.81
2022-12-09T01:02:46.488Z,15.81
2022-12-09T01:04:47.085Z,15.82
2022-12-09T01:06:48.071Z,15.81
2022-12-09T01:08:48.810Z,15.76
2022-12-09T01:10:49.660Z,15.78
2022-12-09T01:12:50.391Z,15.78
2022-12-09T01:14:51.110Z,15.74
2022-12-09T01:16:52.015Z,15.75
2022-12-09T01:18:52.800Z,15.74
2022-12-09T01:20:53.707Z,15.75
2022-12-09T01:22:54.395Z,15.75
2022-12-09T01:24:55.212Z,15.74
2022-12-09T01:26:55.904Z,15.72
2022-12-09T01:28:56.654Z,15.72
2022-12-09T01:30:57.765Z,15.70
2022-12-09T01:32:58.107Z,15.68
2022-12-09T01:34:58.913Z,15.70
2022-12-09T01:36:59.852Z,15.67
2022-12-09T01:39:00.773Z,15.67
2022-12-09T01:41:01.069Z,15.67
2022-12-09T01:43:01.954Z,15.64
2022-12-09T01:45:02.693Z,15.63
2022-12-09T01:47:03.922Z,15.63
2022-12-09T01:49:04.432Z,15.64
2022-12-09T01:51:05.247Z,15.64
2022-12-09T01:53:06.008Z,15.63
2022-12-09T01:55:06.919Z,15.60
2022-12-09T01:57:07.821Z,15.61
2022-12-09T01:59:08.518Z,15.60
2022-12-09T02:01:09.320Z,15.60
2022-12-09T02:03:10.009Z,15.57
2022-12-09T02:05:10.927Z,15.60
2022-12-09T02:07:11.706Z,15.59
2022-12-09T02:09:12.143Z,15.57
2022-12-09T02:11:12.940Z,15.56
2022-12-09T02:13:13.662Z,15.57
2022-12-09T02:15:14.556Z,15.56
2022-12-09T02:17:15.376Z,15.56
2022-12-09T02:19:16.480Z,15.54
2022-12-09T02:21:17.220Z,15.54
2022-12-09T02:23:18.164Z,15.52
2022-12-09T02:25:18.839Z,15.52
2022-12-09T02:27:19.621Z,15.49
2022-12-09T02:29:20.327Z,15.49
2022-12-09T02:31:21.471Z,15.51
2022-12-09T02:33:22.003Z,15.51
2022-12-09T02:35:22.561Z,15.49
2022-12-09T02:37:22.762Z,15.46
2022-12-09T02:39:23.649Z,15.48
2022-12-09T02:41:24.320Z,15.48
2022-12-09T02:43:25.083Z,15.46
2022-12-09T02:45:25.812Z,15.48
2022-12-09T02:47:26.694Z,15.45
2022-12-09T02:49:27.481Z,15.45
2022-12-09T02:51:28.628Z,15.46
2022-12-09T02:53:28.927Z,15.43
2022-12-09T02:55:29.696Z,15.43
2022-12-09T02:57:30.767Z,15.41
2022-12-09T02:59:30.996Z,15.42
2022-12-09T03:01:31.807Z,15.41
2022-12-09T03:03:32.984Z,15.39
2022-12-09T03:05:33.304Z,15.42
2022-12-09T03:07:34.168Z,15.42
2022-12-09T03:09:35.049Z,15.39
2022-12-09T03:11:35.774Z,15.39
2022-12-09T03:13:36.630Z,15.38
2022-12-09T03:15:37.343Z,15.36
2022-12-09T03:17:38.432Z,15.38
2022-12-09T03:19:38.640Z,15.35
2022-12-09T03:21:39.387Z,15.36
2022-12-09T03:23:40.237Z,15.36
2022-12-09T03:25:40.938Z,15.36
2022-12-09T03:27:41.803Z,15.33
2022-12-09T03:29:42.710Z,15.33
2022-12-09T03:31:43.617Z,15.31
2022-12-09T03:33:44.591Z,15.31
2022-12-09T03:35:45.316Z,15.30
2022-12-09T03:37:46.047Z,15.30
2022-12-09T03:39:46.991Z,15.30
2022-12-09T03:41:47.780Z,15.30
2022-12-09T03:43:48.745Z,15.30
2022-12-09T03:45:49.660Z,15.28
2022-12-09T03:47:50.572Z,15.27
2022-12-09T03:49:51.337Z,15.26
2022-12-09T03:51:52.076Z,15.28
2022-12-09T03:53:52.823Z,15.26
2022-12-09T03:55:53.564Z,15.26
2022-12-09T03:57:54.510Z,15.27
2022-12-09T03:59:55.362Z,15.26
2022-12-09T04:01:56.268Z,15.23
2022-12-09T04:03:57.358Z,15.23
2022-12-09T04:05:57.739Z,15.24
2022-12-09T04:07:58.799Z,15.23
2022-12-09T04:09:59.040Z,15.26
2022-12-09T04:11:59.823Z,15.23
2022-12-09T04:14:00.611Z,15.21
2022-12-09T04:16:01.363Z,15.21
2022-12-09T04:18:02.424Z,15.20
2022-12-09T04:20:02.697Z,15.21
2022-12-09T04:22:03.622Z,15.17
2022-12-09T04:24:04.567Z,15.19
2022-12-09T04:26:04.986Z,15.20
2022-12-09T04:28:05.839Z,15.20
2022-12-09T04:30:07.322Z,15.17
2022-12-09T04:32:07.725Z,15.17
2022-12-09T04:34:09.763Z,15.19
2022-12-09T04:36:08.866Z,15.17
2022-12-09T04:38:09.634Z,15.13
2022-12-09T04:40:11.021Z,15.13
2022-12-09T04:42:10.973Z,15.15
2022-12-09T04:44:11.899Z,15.15
2022-12-09T04:46:12.732Z,15.13
2022-12-09T04:48:13.803Z,15.11
2022-12-09T04:50:15.081Z,15.13
2022-12-09T04:52:15.504Z,15.13
2022-12-09T04:54:16.239Z,15.11
2022-12-09T04:56:17.153Z,15.09
2022-12-09T04:58:17.863Z,15.11
2022-12-09T05:00:18.629Z,15.12
2022-12-09T05:02:19.191Z,15.11
2022-12-09T05:04:20.455Z,15.08
2022-12-09T05:06:21.298Z,15.08
2022-12-09T05:08:24.649Z,15.09
2022-12-09T05:10:22.273Z,15.08
2022-12-09T05:12:23.140Z,15.08
2022-12-09T05:14:24.170Z,15.08
2022-12-09T05:16:24.859Z,15.09
2022-12-09T05:18:25.734Z,15.06
2022-12-09T05:20:26.441Z,15.08
2022-12-09T05:22:26.706Z,15.05
2022-12-09T05:24:27.823Z,15.03
2022-12-09T05:26:28.332Z,15.03
2022-12-09T05:28:28.605Z,15.03
2022-12-09T05:30:29.463Z,15.03
2022-12-09T05:32:30.680Z,15.03
2022-12-09T05:34:31.285Z,15.02
2022-12-09T05:36:31.716Z,15.05
2022-12-09T05:38:32.422Z,15.02
2022-12-09T05:40:33.597Z,15.01
2022-12-09T05:42:39.440Z,14.99
2022-12-09T05:44:34.485Z,14.99
2022-12-09T05:46:35.463Z,14.99
2022-12-09T05:48:36.420Z,15.02
2022-12-09T05:50:37.192Z,14.98
2022-12-09T05:52:37.812Z,15.03
2022-12-09T05:54:38.157Z,14.99
2022-12-09T05:56:44.408Z,14.99
2022-12-09T05:58:39.766Z,14.98
2022-12-09T06:00:40.286Z,14.99
2022-12-09T06:02:41.248Z,15.01
2022-12-09T06:04:42.123Z,14.99
2022-12-09T06:06:42.633Z,14.98
2022-12-09T06:08:43.710Z,15.01
2022-12-09T06:10:44.330Z,14.98
2022-12-09T06:12:44.812Z,14.98
2022-12-09T06:14:45.516Z,14.98
2022-12-09T06:16:46.270Z,14.99
2022-12-09T06:18:46.913Z,14.95
2022-12-09T06:20:47.969Z,14.99
2022-12-09T06:22:48.564Z,15.01
2022-12-09T06:24:52.748Z,14.95
2022-12-09T06:26:49.508Z,15.01
2022-12-09T06:28:50.372Z,15.01
2022-12-09T06:30:51.280Z,15.01
2022-12-09T06:32:52.204Z,15.01
2022-12-09T06:34:53.095Z,15.01
2022-12-09T06:36:53.687Z,15.02
2022-12-09T06:38:54.732Z,15.01
2022-12-09T06:40:55.368Z,15.02
2022-12-09T06:42:55.997Z,15.05
2022-12-09T06:44:56.374Z,15.03
2022-12-09T06:46:57.157Z,15.02
2022-12-09T06:48:57.968Z,15.03
2022-12-09T06:50:58.685Z,15.06
2022-12-09T06:52:59.649Z,15.03
2022-12-09T06:55:00.681Z,15.06
2022-12-09T06:57:01.303Z,15.06
2022-12-09T06:59:01.930Z,15.06
2022-12-09T07:01:02.297Z,15.06
2022-12-09T07:03:03.603Z,15.08
2022-12-09T07:05:04.398Z,15.06
2022-12-09T07:07:05.024Z,15.06
2022-12-09T07:09:05.526Z,15.06
2022-12-09T07:11:06.696Z,15.08
2022-12-09T07:13:07.281Z,15.09
2022-12-09T07:15:07.837Z,15.08
2022-12-09T07:17:08.535Z,15.12
2022-12-09T07:19:09.305Z,15.09
2022-12-09T07:21:10.040Z,15.09
2022-12-09T07:23:10.297Z,15.09
2022-12-09T07:25:11.205Z,15.12
2022-12-09T07:27:17.265Z,15.12
2022-12-09T07:29:12.244Z,15.11
2022-12-09T07:31:13.080Z,15.12
2022-12-09T07:33:14.010Z,15.12
2022-12-09T07:35:15.639Z,15.13
2022-12-09T07:37:15.717Z,15.13
2022-12-09T07:39:16.588Z,15.13
2022-12-09T07:41:17.591Z,15.15
2022-12-09T07:43:18.097Z,15.15
2022-12-09T07:45:18.419Z,15.17
2022-12-09T07:47:19.716Z,15.19
2022-12-09T07:49:20.052Z,15.15
2022-12-09T07:51:21.069Z,15.17
2022-12-09T07:53:22.284Z,15.17
2022-12-09T07:55:22.884Z,15.19
2022-12-09T07:57:23.175Z,15.19
2022-12-09T07:59:24.187Z,15.17
2022-12-09T08:01:24.709Z,15.20
2022-12-09T08:03:25.397Z,15.19
2022-12-09T08:05:25.953Z,15.19
2022-12-09T08:07:26.495Z,15.20
2022-12-09T08:09:27.347Z,15.19
2022-12-09T08:11:28.368Z,15.21
2022-12-09T08:13:28.632Z,15.19
2022-12-09T08:15:29.767Z,15.20
2022-12-09T08:17:30.324Z,15.20
2022-12-09T08:19:31.202Z,15.17
2022-12-09T08:21:31.929Z,15.20
2022-12-09T08:23:32.323Z,15.19
2022-12-09T08:25:33.206Z,15.20
2022-12-09T08:27:33.767Z,15.20
2022-12-09T08:29:34.393Z,15.19
2022-12-09T08:31:40.673Z,15.20
2022-12-09T08:33:35.491Z,15.21
2022-12-09T08:35:36.150Z,15.21
2022-12-09T08:37:36.485Z,15.20
2022-12-09T08:39:37.480Z,15.20
2022-12-09T08:41:39.130Z,15.20
2022-12-09T08:43:38.767Z,15.19
2022-12-09T08:45:39.935Z,15.21
2022-12-09T08:47:40.324Z,15.21
2022-12-09T08:49:41.348Z,15.23
2022-12-09T08:51:42.076Z,15.21
2022-12-09T08:53:42.893Z,15.21
2022-12-09T08:55:43.783Z,15.24
2022-12-09T08:57:44.570Z,15.20
2022-12-09T08:59:46.019Z,15.24
2022-12-09T09:01:46.672Z,15.23
2022-12-09T09:03:47.321Z,15.26
2022-12-09T09:05:47.809Z,15.26
2022-12-09T09:07:48.610Z,15.26
2022-12-09T09:09:49.132Z,15.27
2022-12-09T09:11:50.241Z,15.27
2022-12-09T09:13:50.928Z,15.27
2022-12-09T09:15:51.264Z,15.26
2022-12-09T09:17:52.464Z,15.27
2022-12-09T09:19:53.340Z,15.27
2022-12-09T09:21:53.978Z,15.28
2022-12-09T09:23:54.792Z,15.27
2022-12-09T09:25:55.527Z,15.30
2022-12-09T09:27:55.993Z,15.28
2022-12-09T09:29:56.938Z,15.28
2022-12-09T09:31:57.548Z,15.30
2022-12-09T09:36:29.582Z,14.98
2022-12-09T09:38:30.743Z,14.56
2022-12-09T09:40:31.797Z,14.37
2022-12-09T09:42:32.050Z,14.35
2022-12-09T09:44:32.420Z,14.42
2022-12-09T09:46:33.346Z,14.52
2022-12-09T09:48:34.242Z,14.65
2022-12-09T09:50:34.500Z,14.86
2022-12-09T09:52:34.941Z,15.02
2022-12-09T09:54:35.698Z,15.15
2022-12-09T09:56:36.188Z,15.24
2022-12-09T09:58:37.385Z,15.33
2022-12-09T10:00:38.059Z,15.39
2022-12-09T10:02:38.780Z,15.45
2022-12-09T10:04:39.393Z,15.49
2022-12-09T10:06:40.180Z,15.54
2022-12-09T10:08:40.706Z,15.57
2022-12-09T10:10:41.299Z,15.60
2022-12-09T10:12:41.701Z,15.64
2022-12-09T10:14:42.104Z,15.66
2022-12-09T10:16:42.768Z,15.68
2022-12-09T10:18:43.320Z,15.72
2022-12-09T10:20:44.202Z,15.72
2022-12-09T10:22:44.866Z,15.74
2022-12-09T10:24:45.379Z,15.75
2022-12-09T10:26:45.833Z,15.75
2022-12-09T10:28:46.387Z,15.75
2022-12-09T10:30:46.644Z,15.78
2022-12-09T10:32:47.622Z,15.81
2022-12-09T10:34:48.566Z,15.88
2022-12-09T10:36:48.714Z,15.96
2022-12-09T10:38:49.500Z,16.01
2022-12-09T10:40:49.817Z,16.07
2022-12-09T10:42:50.587Z,16.15
2022-12-09T10:44:51.238Z,16.23
2022-12-09T10:46:51.746Z,16.33
2022-12-09T10:48:52.377Z,16.38
2022-12-09T10:50:53.193Z,16.44
2022-12-09T10:52:53.394Z,16.44
2022-12-09T10:54:53.874Z,16.45
2022-12-09T10:56:54.551Z,16.44
2022-12-09T10:58:54.914Z,16.44
2022-12-09T11:00:55.575Z,16.45
2022-12-09T11:02:56.631Z,16.42
2022-12-09T11:04:56.995Z,16.41
2022-12-09T11:06:59.874Z,16.41
2022-12-09T11:08:58.055Z,16.41
2022-12-09T11:10:58.507Z,16.41
2022-12-09T11:12:58.548Z,16.40
2022-12-09T11:14:59.139Z,16.38
2022-12-09T11:16:59.675Z,16.38
2022-12-09T11:19:00.278Z,16.38
2022-12-09T11:21:00.954Z,16.37
2022-12-09T11:23:01.761Z,16.35
2022-12-09T11:25:02.694Z,16.38
2022-12-09T11:27:03.222Z,16.38
2022-12-09T11:29:03.752Z,16.49
2022-12-09T11:31:28.211Z,16.68
2022-12-09T11:33:05.186Z,16.83
2022-12-09T11:35:05.710Z,16.98
2022-12-09T11:37:05.441Z,17.13
2022-12-09T11:39:05.837Z,17.25
2022-12-09T11:41:06.317Z,17.35
2022-12-09T11:43:06.842Z,17.44
2022-12-09T11:45:07.259Z,17.51
2022-12-09T11:47:07.901Z,17.55
2022-12-09T11:49:08.502Z,17.64
2022-12-09T11:51:08.921Z,17.70
2022-12-09T11:53:09.597Z,17.76
2022-12-09T11:55:10.278Z,17.79
2022-12-09T11:57:10.943Z,17.74
2022-12-09T11:59:11.643Z,17.69
2022-12-09T12:01:12.347Z,17.62
2022-12-09T12:03:13.109Z,17.53
2022-12-09T12:05:19.853Z,17.46
2022-12-09T12:07:14.559Z,17.36
2022-12-09T12:09:14.992Z,17.30
2022-12-09T12:11:15.914Z,17.28
2022-12-09T12:13:16.197Z,17.25
2022-12-09T12:15:16.937Z,17.25
2022-12-09T12:17:17.329Z,17.23
2022-12-09T12:19:17.566Z,17.23
2022-12-09T12:21:18.365Z,17.18
2022-12-09T12:23:18.723Z,17.15
2022-12-09T12:25:19.181Z,17.11
2022-12-09T12:27:19.498Z,17.07
2022-12-09T12:29:20.282Z,17.04
2022-12-09T12:31:21.051Z,16.99
2022-12-09T12:34:00.377Z,16.96
2022-12-09T12:35:22.497Z,16.95
2022-12-09T12:37:23.265Z,16.89
2022-12-09T12:39:24.010Z,16.89
2022-12-09T12:41:24.732Z,16.85
2022-12-09T12:43:25.473Z,16.83
2022-12-09T12:45:26.249Z,16.80
2022-12-09T12:47:26.986Z,16.78
2022-12-09T12:49:27.778Z,16.75
2022-12-09T12:51:28.542Z,16.74
2022-12-09T12:53:29.267Z,16.71
2022-12-09T12:55:30.019Z,16.71
2022-12-09T12:57:30.732Z,16.67
2022-12-09T12:59:31.455Z,16.65
2022-12-09T13:01:32.333Z,16.63
2022-12-09T13:03:32.543Z,16.62
2022-12-09T13:05:33.309Z,16.62
2022-12-09T13:07:34.104Z,16.60
2022-12-09T13:09:34.481Z,16.59
2022-12-09T13:11:35.303Z,16.58
2022-12-09T13:13:35.628Z,16.56
2022-12-09T13:15:36.329Z,16.55
2022-12-09T13:17:37.059Z,16.52
2022-12-09T13:19:37.457Z,16.52
2022-12-09T13:21:38.260Z,16.53
2022-12-09T13:23:38.642Z,16.53
2022-12-09T13:25:38.968Z,16.58
2022-12-09T13:27:39.330Z,16.60
2022-12-09T13:34:32.426Z,16.56
2022-12-09T13:36:36.543Z,16.56
2022-12-09T13:38:35.050Z,16.62
2022-12-09T13:40:35.872Z,16.67
2022-12-09T14:22:19.884Z,16.67
2022-12-09T14:28:28.717Z,-39.76
2022-12-09T14:30:31.546Z,-39.76
